Strona główna
METAR-TAF:

METAR-TAF

Lotnisko :

Fort Richardson, Alaska, Stany Zjednoczone

Szerokość geograficzna: 61-15-45N, Długość geograficzna: 149-39-17W, wysokość: 115 m

Aktualna obserwacja pogody

Raport powstał 25 minut temu, godzina 14:55 UTC
Wiatr 5 kt od północ
Temperatura 11°C
Wilgotność 76%
Ciśnienie 1012 hPa
Widzialność: 16.1 km
bezchmurnie

METAR: PAFR 211455Z AUTO 01005KT 10SM CLR 11/07 A2989 RMK AO2 SLP127 T01070068 56005 $

czas: 07:20 (15:20 UTC)


TAF: brakujący

Obserwacja i prognoza pogody dla ponad 4000 lotnisk (raport METAR i TAF).

Dostępne stacje oznaczono żółtymi i czerwonymi punktami na mapie.

Najedź kursorem aby zobaczyć nazwę stacji.

Kliknij aby zobaczyć obserwacje i prognozy pogody.

Aby zmienić mapę: kliknij na zielony przycisk z czarnym krzyżykiem, aby powiększyć; na zielony przycisk z myślnikiem, aby pomniejszyć; na zielone strzałki, aby przejść do map sąsiednich.


METAR-TAF: